sensor_id;sensor_type;location;lat;lon;timestamp;temperature;humidity
58519;DHT22;44310;48.106;12.008;2023-03-08T00:02:22;14.80;68.80
58519;DHT22;44310;48.106;12.008;2023-03-08T00:04:49;14.80;68.90
58519;DHT22;44310;48.106;12.008;2023-03-08T00:07:19;14.80;68.80
58519;DHT22;44310;48.106;12.008;2023-03-08T00:09:46;14.80;68.90
58519;DHT22;44310;48.106;12.008;2023-03-08T00:12:14;14.80;69.00
58519;DHT22;44310;48.106;12.008;2023-03-08T00:14:41;14.80;69.10
58519;DHT22;44310;48.106;12.008;2023-03-08T00:17:08;14.80;69.30
58519;DHT22;44310;48.106;12.008;2023-03-08T00:19:35;14.80;69.70
58519;DHT22;44310;48.106;12.008;2023-03-08T00:22:02;14.80;70.20
58519;DHT22;44310;48.106;12.008;2023-03-08T00:24:30;14.90;70.50
58519;DHT22;44310;48.106;12.008;2023-03-08T00:26:57;14.90;70.90
58519;DHT22;44310;48.106;12.008;2023-03-08T00:29:24;14.90;71.30
58519;DHT22;44310;48.106;12.008;2023-03-08T00:31:51;14.90;71.80
58519;DHT22;44310;48.106;12.008;2023-03-08T00:34:18;14.90;72.20
58519;DHT22;44310;48.106;12.008;2023-03-08T00:36:45;14.90;72.40
58519;DHT22;44310;48.106;12.008;2023-03-08T00:39:13;14.90;72.10
58519;DHT22;44310;48.106;12.008;2023-03-08T00:41:42;14.90;72.30
58519;DHT22;44310;48.106;12.008;2023-03-08T00:44:09;14.90;72.90
58519;DHT22;44310;48.106;12.008;2023-03-08T00:46:36;14.90;73.50
58519;DHT22;44310;48.106;12.008;2023-03-08T00:49:03;14.90;73.60
58519;DHT22;44310;48.106;12.008;2023-03-08T00:51:30;14.90;73.60
58519;DHT22;44310;48.106;12.008;2023-03-08T00:53:57;14.90;73.60
58519;DHT22;44310;48.106;12.008;2023-03-08T00:56:25;15.00;73.70
58519;DHT22;44310;48.106;12.008;2023-03-08T00:58:52;14.90;74.00
58519;DHT22;44310;48.106;12.008;2023-03-08T01:01:20;14.90;74.30
58519;DHT22;44310;48.106;12.008;2023-03-08T01:03:47;14.90;74.40
58519;DHT22;44310;48.106;12.008;2023-03-08T01:06:14;14.80;74.50
58519;DHT22;44310;48.106;12.008;2023-03-08T01:08:42;14.80;74.50
58519;DHT22;44310;48.106;12.008;2023-03-08T01:11:15;14.60;74.30
58519;DHT22;44310;48.106;12.008;2023-03-08T01:13:43;14.80;74.40
58519;DHT22;44310;48.106;12.008;2023-03-08T01:16:22;14.80;74.20
58519;DHT22;44310;48.106;12.008;2023-03-08T01:18:49;14.80;74.30
58519;DHT22;44310;48.106;12.008;2023-03-08T01:21:17;14.80;73.80
58519;DHT22;44310;48.106;12.008;2023-03-08T01:23:44;14.70;74.10
58519;DHT22;44310;48.106;12.008;2023-03-08T01:26:16;14.90;74.10
58519;DHT22;44310;48.106;12.008;2023-03-08T01:28:44;14.60;73.60
58519;DHT22;44310;48.106;12.008;2023-03-08T01:31:13;15.20;73.60
58519;DHT22;44310;48.106;12.008;2023-03-08T01:33:42;14.60;73.50
58519;DHT22;44310;48.106;12.008;2023-03-08T01:36:12;14.60;73.80
58519;DHT22;44310;48.106;12.008;2023-03-08T01:38:39;14.60;74.00
58519;DHT22;44310;48.106;12.008;2023-03-08T01:41:11;14.60;74.00
58519;DHT22;44310;48.106;12.008;2023-03-08T01:43:39;14.60;73.80
58519;DHT22;44310;48.106;12.008;2023-03-08T01:46:27;14.70;74.20
58519;DHT22;44310;48.106;12.008;2023-03-08T01:51:43;14.80;74.40
58519;DHT22;44310;48.106;12.008;2023-03-08T01:56:49;14.80;74.20
58519;DHT22;44310;48.106;12.008;2023-03-08T01:59:20;14.90;74.00
58519;DHT22;44310;48.106;12.008;2023-03-08T02:01:48;14.90;73.70
58519;DHT22;44310;48.106;12.008;2023-03-08T02:04:15;14.90;73.50
58519;DHT22;44310;48.106;12.008;2023-03-08T02:06:43;14.80;73.10
58519;DHT22;44310;48.106;12.008;2023-03-08T02:09:11;14.80;73.40
58519;DHT22;44310;48.106;12.008;2023-03-08T02:11:39;15.10;72.80
58519;DHT22;44310;48.106;12.008;2023-03-08T02:14:07;14.70;72.50
58519;DHT22;44310;48.106;12.008;2023-03-08T02:16:34;14.70;72.30
58519;DHT22;44310;48.106;12.008;2023-03-08T02:19:05;14.70;72.10
58519;DHT22;44310;48.106;12.008;2023-03-08T02:21:34;14.70;72.20
58519;DHT22;44310;48.106;12.008;2023-03-08T02:24:06;14.70;72.40
58519;DHT22;44310;48.106;12.008;2023-03-08T02:26:36;14.70;72.30
58519;DHT22;44310;48.106;12.008;2023-03-08T02:29:03;14.70;72.60
58519;DHT22;44310;48.106;12.008;2023-03-08T02:31:30;14.70;72.90
58519;DHT22;44310;48.106;12.008;2023-03-08T02:33:57;14.70;72.70
58519;DHT22;44310;48.106;12.008;2023-03-08T02:36:24;14.70;72.40
58519;DHT22;44310;48.106;12.008;2023-03-08T02:38:52;14.70;72.40
58519;DHT22;44310;48.106;12.008;2023-03-08T02:41:19;14.70;72.40
58519;DHT22;44310;48.106;12.008;2023-03-08T02:43:46;14.60;72.50
58519;DHT22;44310;48.106;12.008;2023-03-08T02:46:13;14.70;73.60
58519;DHT22;44310;48.106;12.008;2023-03-08T02:48:41;14.80;73.70
58519;DHT22;44310;48.106;12.008;2023-03-08T02:51:08;14.80;73.60
58519;DHT22;44310;48.106;12.008;2023-03-08T02:53:35;15.00;73.60
58519;DHT22;44310;48.106;12.008;2023-03-08T02:56:02;14.80;73.20
58519;DHT22;44310;48.106;12.008;2023-03-08T02:58:29;14.90;73.20
58519;DHT22;44310;48.106;12.008;2023-03-08T03:00:56;14.80;73.10
58519;DHT22;44310;48.106;12.008;2023-03-08T03:03:24;14.80;73.10
58519;DHT22;44310;48.106;12.008;2023-03-08T03:05:51;14.80;73.00
58519;DHT22;44310;48.106;12.008;2023-03-08T03:08:18;14.80;73.00
58519;DHT22;44310;48.106;12.008;2023-03-08T03:10:45;14.80;72.90
58519;DHT22;44310;48.106;12.008;2023-03-08T03:13:12;14.80;73.00
58519;DHT22;44310;48.106;12.008;2023-03-08T03:15:39;14.80;72.90
58519;DHT22;44310;48.106;12.008;2023-03-08T03:18:07;14.80;72.50
58519;DHT22;44310;48.106;12.008;2023-03-08T03:20:34;14.80;72.40
58519;DHT22;44310;48.106;12.008;2023-03-08T03:23:01;14.80;72.40
58519;DHT22;44310;48.106;12.008;2023-03-08T03:25:28;14.80;72.50
58519;DHT22;44310;48.106;12.008;2023-03-08T03:27:56;14.80;73.00
58519;DHT22;44310;48.106;12.008;2023-03-08T03:30:23;14.80;72.90
58519;DHT22;44310;48.106;12.008;2023-03-08T03:32:50;14.90;72.90
58519;DHT22;44310;48.106;12.008;2023-03-08T03:35:17;14.80;73.10
58519;DHT22;44310;48.106;12.008;2023-03-08T03:37:44;14.80;73.30
58519;DHT22;44310;48.106;12.008;2023-03-08T03:40:11;14.80;73.20
58519;DHT22;44310;48.106;12.008;2023-03-08T03:42:40;14.80;73.10
58519;DHT22;44310;48.106;12.008;2023-03-08T03:45:07;14.70;72.90
58519;DHT22;44310;48.106;12.008;2023-03-08T03:47:34;14.70;72.60
58519;DHT22;44310;48.106;12.008;2023-03-08T03:50:02;14.70;72.40
58519;DHT22;44310;48.106;12.008;2023-03-08T03:52:29;14.70;72.30
58519;DHT22;44310;48.106;12.008;2023-03-08T03:54:57;14.60;72.20
58519;DHT22;44310;48.106;12.008;2023-03-08T03:57:24;14.70;72.50
58519;DHT22;44310;48.106;12.008;2023-03-08T03:59:51;14.60;72.40
58519;DHT22;44310;48.106;12.008;2023-03-08T04:02:18;14.70;72.20
58519;DHT22;44310;48.106;12.008;2023-03-08T04:04:48;14.60;72.20
58519;DHT22;44310;48.106;12.008;2023-03-08T04:07:16;14.60;72.10
58519;DHT22;44310;48.106;12.008;2023-03-08T04:09:43;14.60;72.10
58519;DHT22;44310;48.106;12.008;2023-03-08T04:12:10;14.60;72.20
58519;DHT22;44310;48.106;12.008;2023-03-08T04:14:38;14.60;72.10
58519;DHT22;44310;48.106;12.008;2023-03-08T04:17:07;14.70;72.10
58519;DHT22;44310;48.106;12.008;2023-03-08T04:19:34;15.00;72.10
58519;DHT22;44310;48.106;12.008;2023-03-08T04:22:01;14.60;71.90
58519;DHT22;44310;48.106;12.008;2023-03-08T04:24:28;14.60;71.90
58519;DHT22;44310;48.106;12.008;2023-03-08T04:26:55;14.60;72.30
58519;DHT22;44310;48.106;12.008;2023-03-08T04:29:22;14.70;72.30
58519;DHT22;44310;48.106;12.008;2023-03-08T04:31:49;14.70;72.80
58519;DHT22;44310;48.106;12.008;2023-03-08T04:34:16;14.70;72.80
58519;DHT22;44310;48.106;12.008;2023-03-08T04:36:44;14.80;72.50
58519;DHT22;44310;48.106;12.008;2023-03-08T04:39:11;14.80;72.30
58519;DHT22;44310;48.106;12.008;2023-03-08T04:41:38;14.80;72.00
58519;DHT22;44310;48.106;12.008;2023-03-08T04:44:05;14.30;71.70
58519;DHT22;44310;48.106;12.008;2023-03-08T04:46:32;14.80;71.90
58519;DHT22;44310;48.106;12.008;2023-03-08T04:48:59;14.70;71.80
58519;DHT22;44310;48.106;12.008;2023-03-08T04:51:26;14.70;71.70
58519;DHT22;44310;48.106;12.008;2023-03-08T04:53:53;14.70;71.90
58519;DHT22;44310;48.106;12.008;2023-03-08T04:56:21;14.70;71.70
58519;DHT22;44310;48.106;12.008;2023-03-08T04:58:48;14.80;72.90
58519;DHT22;44310;48.106;12.008;2023-03-08T05:01:18;15.10;73.40
58519;DHT22;44310;48.106;12.008;2023-03-08T05:03:45;14.90;73.30
58519;DHT22;44310;48.106;12.008;2023-03-08T05:06:16;14.80;73.50
58519;DHT22;44310;48.106;12.008;2023-03-08T05:08:43;14.90;73.80
58519;DHT22;44310;48.106;12.008;2023-03-08T05:11:17;15.00;74.00
58519;DHT22;44310;48.106;12.008;2023-03-08T05:13:46;14.90;74.00
58519;DHT22;44310;48.106;12.008;2023-03-08T05:16:13;14.80;74.30
58519;DHT22;44310;48.106;12.008;2023-03-08T05:18:40;14.80;74.30
58519;DHT22;44310;48.106;12.008;2023-03-08T05:21:13;14.80;74.00
58519;DHT22;44310;48.106;12.008;2023-03-08T05:23:41;14.80;73.80
58519;DHT22;44310;48.106;12.008;2023-03-08T05:26:10;14.80;73.70
58519;DHT22;44310;48.106;12.008;2023-03-08T05:28:37;14.80;73.80
58519;DHT22;44310;48.106;12.008;2023-03-08T05:31:07;14.20;72.90
58519;DHT22;44310;48.106;12.008;2023-03-08T05:33:37;14.70;72.90
58519;DHT22;44310;48.106;12.008;2023-03-08T05:36:05;14.70;72.80
58519;DHT22;44310;48.106;12.008;2023-03-08T05:38:33;14.70;72.70
58519;DHT22;44310;48.106;12.008;2023-03-08T05:41:02;14.40;72.50
58519;DHT22;44310;48.106;12.008;2023-03-08T05:43:30;14.70;72.60
58519;DHT22;44310;48.106;12.008;2023-03-08T05:45:59;14.50;72.40
58519;DHT22;44310;48.106;12.008;2023-03-08T05:48:28;14.70;72.60
58519;DHT22;44310;48.106;12.008;2023-03-08T05:50:56;15.60;73.20
58519;DHT22;44310;48.106;12.008;2023-03-08T05:53:23;14.60;72.80
58519;DHT22;44310;48.106;12.008;2023-03-08T05:55:50;14.70;72.60
58519;DHT22;44310;48.106;12.008;2023-03-08T05:58:17;14.80;73.70
58519;DHT22;44310;48.106;12.008;2023-03-08T06:00:44;14.80;73.60
58519;DHT22;44310;48.106;12.008;2023-03-08T06:03:11;14.80;73.40
58519;DHT22;44310;48.106;12.008;2023-03-08T06:05:39;14.80;73.50
58519;DHT22;44310;48.106;12.008;2023-03-08T06:08:06;14.80;73.60
58519;DHT22;44310;48.106;12.008;2023-03-08T06:10:33;14.80;73.40
58519;DHT22;44310;48.106;12.008;2023-03-08T06:13:00;14.80;73.30
58519;DHT22;44310;48.106;12.008;2023-03-08T06:15:29;14.80;73.70
58519;DHT22;44310;48.106;12.008;2023-03-08T06:17:56;14.60;73.70
58519;DHT22;44310;48.106;12.008;2023-03-08T06:20:23;14.90;73.90
58519;DHT22;44310;48.106;12.008;2023-03-08T06:22:50;14.90;73.80
58519;DHT22;44310;48.106;12.008;2023-03-08T06:25:17;14.80;74.20
58519;DHT22;44310;48.106;12.008;2023-03-08T06:27:46;14.80;74.30
58519;DHT22;44310;48.106;12.008;2023-03-08T06:30:14;14.80;73.60
58519;DHT22;44310;48.106;12.008;2023-03-08T06:32:41;14.80;73.40
58519;DHT22;44310;48.106;12.008;2023-03-08T06:35:09;15.00;73.40
58519;DHT22;44310;48.106;12.008;2023-03-08T06:37:36;14.90;73.20
58519;DHT22;44310;48.106;12.008;2023-03-08T06:40:04;14.80;73.20
58519;DHT22;44310;48.106;12.008;2023-03-08T06:42:31;14.90;73.10
58519;DHT22;44310;48.106;12.008;2023-03-08T06:45:08;14.90;72.90
58519;DHT22;44310;48.106;12.008;2023-03-08T06:47:36;14.90;72.50
58519;DHT22;44310;48.106;12.008;2023-03-08T06:50:03;14.80;72.20
58519;DHT22;44310;48.106;12.008;2023-03-08T06:52:30;14.90;72.20
58519;DHT22;44310;48.106;12.008;2023-03-08T06:55:04;14.80;72.00
58519;DHT22;44310;48.106;12.008;2023-03-08T06:57:31;14.90;71.90
58519;DHT22;44310;48.106;12.008;2023-03-08T06:59:58;14.60;71.60
58519;DHT22;44310;48.106;12.008;2023-03-08T07:02:25;14.90;71.60
58519;DHT22;44310;48.106;12.008;2023-03-08T07:04:52;14.90;71.60
58519;DHT22;44310;48.106;12.008;2023-03-08T07:07:20;14.80;71.30
58519;DHT22;44310;48.106;12.008;2023-03-08T07:09:47;14.50;71.70
58519;DHT22;44310;48.106;12.008;2023-03-08T07:12:14;15.70;71.90
58519;DHT22;44310;48.106;12.008;2023-03-08T07:14:41;16.40;72.10
58519;DHT22;44310;48.106;12.008;2023-03-08T07:17:08;14.90;71.20
58519;DHT22;44310;48.106;12.008;2023-03-08T07:19:35;14.80;70.90
58519;DHT22;44310;48.106;12.008;2023-03-08T07:22:02;14.90;70.90
58519;DHT22;44310;48.106;12.008;2023-03-08T07:24:29;14.90;70.80
58519;DHT22;44310;48.106;12.008;2023-03-08T07:26:56;14.90;70.90
58519;DHT22;44310;48.106;12.008;2023-03-08T07:29:23;14.90;70.80
58519;DHT22;44310;48.106;12.008;2023-03-08T07:31:51;14.70;70.70
58519;DHT22;44310;48.106;12.008;2023-03-08T07:34:18;14.90;71.00
58519;DHT22;44310;48.106;12.008;2023-03-08T07:36:45;14.90;71.30
58519;DHT22;44310;48.106;12.008;2023-03-08T07:39:12;14.90;71.50
58519;DHT22;44310;48.106;12.008;2023-03-08T07:41:39;14.90;71.50
58519;DHT22;44310;48.106;12.008;2023-03-08T07:44:06;14.90;71.60
58519;DHT22;44310;48.106;12.008;2023-03-08T07:46:33;15.40;71.80
58519;DHT22;44310;48.106;12.008;2023-03-08T07:49:00;14.70;71.30
58519;DHT22;44310;48.106;12.008;2023-03-08T07:51:27;14.90;71.30
58519;DHT22;44310;48.106;12.008;2023-03-08T07:53:54;14.90;71.30
58519;DHT22;44310;48.106;12.008;2023-03-08T07:56:21;15.00;71.50
58519;DHT22;44310;48.106;12.008;2023-03-08T07:58:48;15.30;71.70
58519;DHT22;44310;48.106;12.008;2023-03-08T08:01:15;14.90;71.60
58519;DHT22;44310;48.106;12.008;2023-03-08T08:03:43;14.90;71.80
58519;DHT22;44310;48.106;12.008;2023-03-08T08:06:10;14.90;71.90
58519;DHT22;44310;48.106;12.008;2023-03-08T08:08:37;14.90;72.00
58519;DHT22;44310;48.106;12.008;2023-03-08T08:11:12;14.00;71.60
58519;DHT22;44310;48.106;12.008;2023-03-08T08:13:40;14.90;71.90
58519;DHT22;44310;48.106;12.008;2023-03-08T08:16:07;14.90;71.50
58519;DHT22;44310;48.106;12.008;2023-03-08T08:18:35;14.90;71.40
58519;DHT22;44310;48.106;12.008;2023-03-08T08:21:07;14.90;71.40
58519;DHT22;44310;48.106;12.008;2023-03-08T08:23:35;14.90;71.00
58519;DHT22;44310;48.106;12.008;2023-03-08T08:26:08;14.90;71.30
58519;DHT22;44310;48.106;12.008;2023-03-08T08:28:36;14.10;71.40
58519;DHT22;44310;48.106;12.008;2023-03-08T08:31:12;14.90;72.10
58519;DHT22;44310;48.106;12.008;2023-03-08T08:33:40;14.90;72.30
58519;DHT22;44310;48.106;12.008;2023-03-08T08:36:11;14.90;72.30
58519;DHT22;44310;48.106;12.008;2023-03-08T08:38:39;14.90;72.90
58519;DHT22;44310;48.106;12.008;2023-03-08T08:41:07;14.90;73.10
58519;DHT22;44310;48.106;12.008;2023-03-08T08:43:35;16.00;74.50
58519;DHT22;44310;48.106;12.008;2023-03-08T08:46:03;15.10;74.40
58519;DHT22;44310;48.106;12.008;2023-03-08T08:48:31;15.00;74.50
58519;DHT22;44310;48.106;12.008;2023-03-08T08:51:08;14.90;74.50
58519;DHT22;44310;48.106;12.008;2023-03-08T08:53:37;15.10;74.60
58519;DHT22;44310;48.106;12.008;2023-03-08T08:56:18;15.00;74.60
58519;DHT22;44310;48.106;12.008;2023-03-08T08:58:59;14.90;74.90
58519;DHT22;44310;48.106;12.008;2023-03-08T09:01:31;14.90;75.00
58519;DHT22;44310;48.106;12.008;2023-03-08T09:03:59;14.90;75.40
58519;DHT22;44310;48.106;12.008;2023-03-08T09:06:27;14.90;75.70
58519;DHT22;44310;48.106;12.008;2023-03-08T09:08:57;15.00;75.60
58519;DHT22;44310;48.106;12.008;2023-03-08T09:11:25;15.00;75.60
58519;DHT22;44310;48.106;12.008;2023-03-08T09:13:53;14.90;75.50
58519;DHT22;44310;48.106;12.008;2023-03-08T09:16:23;14.90;75.40
58519;DHT22;44310;48.106;12.008;2023-03-08T09:18:52;15.00;75.50
58519;DHT22;44310;48.106;12.008;2023-03-08T09:21:20;15.00;75.30
58519;DHT22;44310;48.106;12.008;2023-03-08T09:23:47;14.90;75.20
58519;DHT22;44310;48.106;12.008;2023-03-08T09:26:14;15.00;75.10
58519;DHT22;44310;48.106;12.008;2023-03-08T09:28:41;15.00;75.10
58519;DHT22;44310;48.106;12.008;2023-03-08T09:31:13;15.00;75.20
58519;DHT22;44310;48.106;12.008;2023-03-08T09:33:46;14.90;75.40
58519;DHT22;44310;48.106;12.008;2023-03-08T09:36:14;14.90;75.50
58519;DHT22;44310;48.106;12.008;2023-03-08T09:38:42;14.90;75.50
58519;DHT22;44310;48.106;12.008;2023-03-08T09:44:03;15.10;76.10
58519;DHT22;44310;48.106;12.008;2023-03-08T09:46:36;14.90;76.00
58519;DHT22;44310;48.106;12.008;2023-03-08T09:49:08;15.30;76.50
58519;DHT22;44310;48.106;12.008;2023-03-08T09:51:41;14.80;76.20
58519;DHT22;44310;48.106;12.008;2023-03-08T09:54:14;14.80;76.30
58519;DHT22;44310;48.106;12.008;2023-03-08T09:56:47;14.80;76.30
58519;DHT22;44310;48.106;12.008;2023-03-08T10:07:09;14.80;76.50
58519;DHT22;44310;48.106;12.008;2023-03-08T10:15:13;14.90;77.70
58519;DHT22;44310;48.106;12.008;2023-03-08T10:17:54;14.90;77.40
58519;DHT22;44310;48.106;12.008;2023-03-08T10:20:27;14.90;77.10
58519;DHT22;44310;48.106;12.008;2023-03-08T10:23:17;14.60;76.90
58519;DHT22;44310;48.106;12.008;2023-03-08T10:25:45;14.90;77.00
58519;DHT22;44310;48.106;12.008;2023-03-08T10:28:21;14.50;76.80
58519;DHT22;44310;48.106;12.008;2023-03-08T10:30:58;15.00;77.30
58519;DHT22;44310;48.106;12.008;2023-03-08T10:33:33;15.00;77.40
58519;DHT22;44310;48.106;12.008;2023-03-08T10:36:08;14.90;77.20
58519;DHT22;44310;48.106;12.008;2023-03-08T10:38:38;14.90;77.20
58519;DHT22;44310;48.106;12.008;2023-03-08T10:41:12;14.90;77.20
58519;DHT22;44310;48.106;12.008;2023-03-08T10:43:54;14.90;77.20
58519;DHT22;44310;48.106;12.008;2023-03-08T10:46:26;14.90;77.30
58519;DHT22;44310;48.106;12.008;2023-03-08T10:49:12;14.90;77.40
58519;DHT22;44310;48.106;12.008;2023-03-08T10:51:54;15.00;77.50
58519;DHT22;44310;48.106;12.008;2023-03-08T10:54:22;14.90;77.60
58519;DHT22;44310;48.106;12.008;2023-03-08T10:56:53;15.00;77.60
58519;DHT22;44310;48.106;12.008;2023-03-08T10:59:32;14.80;77.50
58519;DHT22;44310;48.106;12.008;2023-03-08T11:02:20;14.90;77.50
58519;DHT22;44310;48.106;12.008;2023-03-08T11:04:57;14.90;77.60
58519;DHT22;44310;48.106;12.008;2023-03-08T11:07:30;14.90;77.70
58519;DHT22;44310;48.106;12.008;2023-03-08T11:10:15;15.60;77.90
58519;DHT22;44310;48.106;12.008;2023-03-08T11:12:43;14.90;77.30
58519;DHT22;44310;48.106;12.008;2023-03-08T11:15:18;14.90;77.10
58519;DHT22;44310;48.106;12.008;2023-03-08T11:18:24;14.90;76.60
58519;DHT22;44310;48.106;12.008;2023-03-08T11:20:57;15.00;76.50
58519;DHT22;44310;48.106;12.008;2023-03-08T11:23:34;15.00;76.80
58519;DHT22;44310;48.106;12.008;2023-03-08T11:26:34;15.00;77.10
58519;DHT22;44310;48.106;12.008;2023-03-08T11:29:22;15.00;77.00
58519;DHT22;44310;48.106;12.008;2023-03-08T11:37:35;15.90;77.10
58519;DHT22;44310;48.106;12.008;2023-03-08T11:45:22;15.10;76.50
58519;DHT22;44310;48.106;12.008;2023-03-08T11:48:11;15.00;76.10
58519;DHT22;44310;48.106;12.008;2023-03-08T11:50:46;15.00;75.90
58519;DHT22;44310;48.106;12.008;2023-03-08T11:53:45;15.00;75.60
58519;DHT22;44310;48.106;12.008;2023-03-08T11:56:34;15.00;75.40
58519;DHT22;44310;48.106;12.008;2023-03-08T12:07:16;14.80;75.70
58519;DHT22;44310;48.106;12.008;2023-03-08T12:12:37;14.70;76.20
58519;DHT22;44310;48.106;12.008;2023-03-08T12:18:12;14.50;75.80
58519;DHT22;44310;48.106;12.008;2023-03-08T12:20:43;14.60;75.70
58519;DHT22;44310;48.106;12.008;2023-03-08T12:23:23;14.60;75.50
58519;DHT22;44310;48.106;12.008;2023-03-08T12:25:59;15.50;76.30
58519;DHT22;44310;48.106;12.008;2023-03-08T12:28:35;14.60;75.00
58519;DHT22;44310;48.106;12.008;2023-03-08T12:31:30;14.50;75.30
58519;DHT22;44310;48.106;12.008;2023-03-08T12:33:59;14.50;75.10
58519;DHT22;44310;48.106;12.008;2023-03-08T12:36:40;14.70;75.00
58519;DHT22;44310;48.106;12.008;2023-03-08T12:39:30;14.40;74.50
58519;DHT22;44310;48.106;12.008;2023-03-08T12:44:37;14.40;74.70
58519;DHT22;44310;48.106;12.008;2023-03-08T12:49:40;14.00;74.60
58519;DHT22;44310;48.106;12.008;2023-03-08T12:54:56;14.40;74.50
58519;DHT22;44310;48.106;12.008;2023-03-08T12:57:49;14.40;74.50
58519;DHT22;44310;48.106;12.008;2023-03-08T13:00:24;14.40;74.20
58519;DHT22;44310;48.106;12.008;2023-03-08T13:05:45;14.40;74.50
58519;DHT22;44310;48.106;12.008;2023-03-08T13:08:20;14.40;74.70
58519;DHT22;44310;48.106;12.008;2023-03-08T13:13:31;14.40;74.60
58519;DHT22;44310;48.106;12.008;2023-03-08T13:18:43;14.30;74.40
58519;DHT22;44310;48.106;12.008;2023-03-08T13:21:30;14.50;74.60
58519;DHT22;44310;48.106;12.008;2023-03-08T13:24:04;14.30;74.50
58519;DHT22;44310;48.106;12.008;2023-03-08T13:26:43;14.30;74.30
58519;DHT22;44310;48.106;12.008;2023-03-08T13:29:19;14.40;74.80
58519;DHT22;44310;48.106;12.008;2023-03-08T13:31:47;14.40;74.30
58519;DHT22;44310;48.106;12.008;2023-03-08T13:34:33;14.40;74.40
58519;DHT22;44310;48.106;12.008;2023-03-08T13:37:01;14.30;73.90
58519;DHT22;44310;48.106;12.008;2023-03-08T13:39:29;14.80;74.20
58519;DHT22;44310;48.106;12.008;2023-03-08T13:42:10;14.30;73.80
58519;DHT22;44310;48.106;12.008;2023-03-08T13:44:38;14.30;74.50
58519;DHT22;44310;48.106;12.008;2023-03-08T13:47:34;14.30;73.70
58519;DHT22;44310;48.106;12.008;2023-03-08T13:50:04;14.30;73.60
58519;DHT22;44310;48.106;12.008;2023-03-08T13:52:34;14.30;73.50
58519;DHT22;44310;48.106;12.008;2023-03-08T13:55:05;14.30;73.40
58519;DHT22;44310;48.106;12.008;2023-03-08T13:57:35;14.30;73.20
58519;DHT22;44310;48.106;12.008;2023-03-08T14:00:30;14.30;73.00
58519;DHT22;44310;48.106;12.008;2023-03-08T14:02:58;14.30;72.70
58519;DHT22;44310;48.106;12.008;2023-03-08T14:05:29;14.30;72.90
58519;DHT22;44310;48.106;12.008;2023-03-08T14:08:02;14.30;73.00
58519;DHT22;44310;48.106;12.008;2023-03-08T14:10:39;14.60;73.10
58519;DHT22;44310;48.106;12.008;2023-03-08T14:13:16;14.30;73.00
58519;DHT22;44310;48.106;12.008;2023-03-08T14:15:50;14.30;73.30
58519;DHT22;44310;48.106;12.008;2023-03-08T14:18:23;14.30;73.40
58519;DHT22;44310;48.106;12.008;2023-03-08T14:23:41;14.30;73.80
58519;DHT22;44310;48.106;12.008;2023-03-08T14:31:29;14.50;73.70
58519;DHT22;44310;48.106;12.008;2023-03-08T14:34:02;14.20;71.70
58519;DHT22;44310;48.106;12.008;2023-03-08T14:36:30;14.20;71.80
58519;DHT22;44310;48.106;12.008;2023-03-08T14:39:17;14.20;72.60
58519;DHT22;44310;48.106;12.008;2023-03-08T14:41:44;14.00;70.10
58519;DHT22;44310;48.106;12.008;2023-03-08T14:44:27;14.00;72.00
58519;DHT22;44310;48.106;12.008;2023-03-08T14:46:55;14.20;72.90
58519;DHT22;44310;48.106;12.008;2023-03-08T14:49:27;14.30;74.20
58519;DHT22;44310;48.106;12.008;2023-03-08T14:51:54;14.50;74.60
58519;DHT22;44310;48.106;12.008;2023-03-08T14:56:54;14.50;71.50
58519;DHT22;44310;48.106;12.008;2023-03-08T14:59:24;14.20;70.70
58519;DHT22;44310;48.106;12.008;2023-03-08T15:01:54;14.10;70.30
58519;DHT22;44310;48.106;12.008;2023-03-08T15:04:22;14.00;70.30
58519;DHT22;44310;48.106;12.008;2023-03-08T15:06:52;13.90;70.00
58519;DHT22;44310;48.106;12.008;2023-03-08T15:09:21;13.80;69.40
58519;DHT22;44310;48.106;12.008;2023-03-08T15:11:51;13.70;70.10
58519;DHT22;44310;48.106;12.008;2023-03-08T15:14:18;13.90;72.20
58519;DHT22;44310;48.106;12.008;2023-03-08T15:16:45;14.20;73.10
58519;DHT22;44310;48.106;12.008;2023-03-08T15:19:12;14.70;73.30
58519;DHT22;44310;48.106;12.008;2023-03-08T15:21:40;14.30;71.00
58519;DHT22;44310;48.106;12.008;2023-03-08T15:24:13;14.20;68.20
58519;DHT22;44310;48.106;12.008;2023-03-08T15:26:42;13.90;67.90
58519;DHT22;44310;48.106;12.008;2023-03-08T15:29:26;13.70;69.00
58519;DHT22;44310;48.106;12.008;2023-03-08T15:31:54;13.60;69.40
58519;DHT22;44310;48.106;12.008;2023-03-08T15:34:22;13.60;69.10
58519;DHT22;44310;48.106;12.008;2023-03-08T15:36:50;13.70;70.20
58519;DHT22;44310;48.106;12.008;2023-03-08T15:39:18;13.70;69.60
58519;DHT22;44310;48.106;12.008;2023-03-08T15:41:46;13.60;69.40
58519;DHT22;44310;48.106;12.008;2023-03-08T15:44:13;13.70;71.60
58519;DHT22;44310;48.106;12.008;2023-03-08T15:46:41;13.80;74.10
58519;DHT22;44310;48.106;12.008;2023-03-08T15:49:08;14.00;75.40
58519;DHT22;44310;48.106;12.008;2023-03-08T15:51:36;14.10;76.10
58519;DHT22;44310;48.106;12.008;2023-03-08T15:54:04;14.20;77.20
58519;DHT22;44310;48.106;12.008;2023-03-08T15:56:32;14.30;77.00
58519;DHT22;44310;48.106;12.008;2023-03-08T15:58:59;14.30;76.60
58519;DHT22;44310;48.106;12.008;2023-03-08T16:01:27;14.30;76.90
58519;DHT22;44310;48.106;12.008;2023-03-08T16:03:55;14.30;77.10
58519;DHT22;44310;48.106;12.008;2023-03-08T16:06:23;14.40;77.60
58519;DHT22;44310;48.106;12.008;2023-03-08T16:08:50;14.40;77.70
58519;DHT22;44310;48.106;12.008;2023-03-08T16:11:18;14.30;77.60
58519;DHT22;44310;48.106;12.008;2023-03-08T16:13:50;14.40;78.50
58519;DHT22;44310;48.106;12.008;2023-03-08T16:16:17;14.40;78.20
58519;DHT22;44310;48.106;12.008;2023-03-08T16:18:45;14.40;78.20
58519;DHT22;44310;48.106;12.008;2023-03-08T16:21:12;14.40;78.50
58519;DHT22;44310;48.106;12.008;2023-03-08T16:23:40;14.40;78.50
58519;DHT22;44310;48.106;12.008;2023-03-08T16:26:10;14.40;78.30
58519;DHT22;44310;48.106;12.008;2023-03-08T16:28:46;14.40;78.30
58519;DHT22;44310;48.106;12.008;2023-03-08T16:31:15;14.50;78.70
58519;DHT22;44310;48.106;12.008;2023-03-08T16:33:45;14.40;78.50
58519;DHT22;44310;48.106;12.008;2023-03-08T16:36:13;15.30;78.90
58519;DHT22;44310;48.106;12.008;2023-03-08T16:38:40;14.40;78.50
58519;DHT22;44310;48.106;12.008;2023-03-08T16:41:07;14.40;78.50
58519;DHT22;44310;48.106;12.008;2023-03-08T16:43:41;14.40;78.70
58519;DHT22;44310;48.106;12.008;2023-03-08T16:46:20;14.40;78.50
58519;DHT22;44310;48.106;12.008;2023-03-08T16:48:49;14.40;78.60